createdAt,value
2022-08-28T00:02:00.978Z,14.80
2022-08-28T00:04:28.159Z,17.45
2022-08-28T00:06:54.938Z,18.77
2022-08-28T00:09:21.987Z,11.75
2022-08-28T00:11:49.450Z,11.80
2022-08-28T00:14:21.006Z,13.65
2022-08-28T00:19:16.986Z,14.68
2022-08-28T00:21:44.453Z,13.62
2022-08-28T00:24:11.818Z,17.35
2022-08-28T00:26:57.276Z,27.75
2022-08-28T00:29:24.838Z,14.20
2022-08-28T00:31:52.112Z,16.20
2022-08-28T00:34:18.910Z,11.32
2022-08-28T00:36:52.378Z,10.73
2022-08-28T00:39:19.537Z,10.82
2022-08-28T00:41:46.788Z,11.30
2022-08-28T00:44:16.926Z,17.55
2022-08-28T00:46:46.478Z,13.45
2022-08-28T00:49:16.786Z,12.48
2022-08-28T00:52:02.671Z,12.93
2022-08-28T00:54:58.730Z,20.17
2022-08-28T00:57:31.023Z,20.80
2022-08-28T00:59:58.526Z,13.70
2022-08-28T01:02:26.602Z,15.52
2022-08-28T01:04:54.487Z,15.18
2022-08-28T01:07:23.265Z,14.82
2022-08-28T01:09:53.507Z,12.95
2022-08-28T01:12:27.591Z,17.27
2022-08-28T01:15:01.448Z,12.77
2022-08-28T01:17:31.306Z,15.73
2022-08-28T01:20:04.677Z,14.87
2022-08-28T01:23:02.425Z,13.48
2022-08-28T01:25:34.382Z,9.52
2022-08-28T01:30:31.850Z,10.95
2022-08-28T01:32:59.402Z,12.00
2022-08-28T01:35:32.963Z,13.23
2022-08-28T01:38:01.375Z,17.77
2022-08-28T01:40:32.643Z,20.17
2022-08-28T01:43:22.210Z,16.77
2022-08-28T01:45:53.177Z,14.07
2022-08-28T01:48:21.999Z,13.67
2022-08-28T01:50:48.989Z,13.45
2022-08-28T01:53:17.803Z,19.77
2022-08-28T01:55:46.155Z,12.25
2022-08-28T01:58:13.654Z,18.48
2022-08-28T02:00:40.519Z,15.10
2022-08-28T02:03:08.431Z,14.82
2022-08-28T02:05:36.038Z,14.85
2022-08-28T02:08:04.752Z,13.30
2022-08-28T02:10:34.979Z,12.88
2022-08-28T02:13:02.530Z,14.73
2022-08-28T02:15:31.493Z,15.70
2022-08-28T02:17:59.930Z,15.70
2022-08-28T02:20:28.650Z,13.35
2022-08-28T02:22:56.518Z,13.98
2022-08-28T02:25:24.342Z,15.75
2022-08-28T02:27:51.023Z,14.73
2022-08-28T02:30:18.012Z,16.27
2022-08-28T02:32:46.223Z,17.85
2022-08-28T02:35:15.739Z,22.05
2022-08-28T02:37:44.293Z,18.10
2022-08-28T02:40:14.598Z,13.95
2022-08-28T02:42:42.081Z,9.02
2022-08-28T02:45:11.826Z,18.25
2022-08-28T02:47:40.273Z,14.48
2022-08-28T02:50:09.412Z,11.23
2022-08-28T02:52:37.442Z,14.73
2022-08-28T02:55:09.837Z,12.05
2022-08-28T02:57:36.772Z,14.02
2022-08-28T03:00:11.951Z,16.48
2022-08-28T03:02:40.198Z,15.27
2022-08-28T03:05:09.100Z,11.32
2022-08-28T03:07:35.839Z,12.45
2022-08-28T03:10:04.476Z,14.43
2022-08-28T03:12:31.162Z,13.38
2022-08-28T03:14:57.889Z,11.77
2022-08-28T03:17:25.049Z,12.75
2022-08-28T03:19:52.233Z,11.68
2022-08-28T03:22:43.205Z,17.25
2022-08-28T03:25:12.037Z,11.63
2022-08-28T03:27:39.085Z,13.50
2022-08-28T03:30:07.952Z,13.23
2022-08-28T03:32:35.542Z,13.30
2022-08-28T03:35:04.019Z,17.65
2022-08-28T03:37:31.380Z,17.87
2022-08-28T03:39:58.406Z,10.10
2022-08-28T03:42:25.256Z,12.68
2022-08-28T03:44:51.899Z,15.00
2022-08-28T03:47:18.806Z,12.73
2022-08-28T03:49:53.715Z,17.92
2022-08-28T03:52:21.052Z,11.32
2022-08-28T03:54:48.141Z,11.32
2022-08-28T03:57:19.969Z,17.35
2022-08-28T03:59:51.941Z,11.43
2022-08-28T04:02:20.512Z,19.65
2022-08-28T04:04:49.553Z,14.70
2022-08-28T04:07:18.405Z,12.80
2022-08-28T04:09:45.768Z,15.13
2022-08-28T04:12:13.247Z,13.13
2022-08-28T04:14:40.282Z,14.63
2022-08-28T04:17:07.544Z,14.87
2022-08-28T04:19:34.664Z,22.65
2022-08-28T04:22:01.736Z,18.73
2022-08-28T04:24:28.496Z,16.45
2022-08-28T04:26:55.743Z,17.65
2022-08-28T04:29:23.158Z,16.95
2022-08-28T04:31:50.464Z,15.38
2022-08-28T04:34:18.041Z,16.52
2022-08-28T04:36:46.028Z,18.42
2022-08-28T04:39:13.179Z,18.92
2022-08-28T04:41:40.576Z,14.65
2022-08-28T04:44:09.329Z,17.90
2022-08-28T04:46:36.470Z,14.20
2022-08-28T04:49:04.858Z,17.58
2022-08-28T04:51:31.905Z,18.37
2022-08-28T04:53:58.763Z,17.12
2022-08-28T04:56:26.560Z,16.02
2022-08-28T04:58:53.571Z,17.08
2022-08-28T05:01:24.404Z,13.88
2022-08-28T05:03:58.445Z,16.50
2022-08-28T05:06:27.350Z,17.73
2022-08-28T05:08:57.144Z,12.35
2022-08-28T05:11:33.394Z,15.70
2022-08-28T05:14:05.066Z,12.70
2022-08-28T05:16:33.164Z,15.23
2022-08-28T05:19:03.539Z,16.52
2022-08-28T05:21:30.655Z,20.05
2022-08-28T05:23:58.140Z,13.45
2022-08-28T05:26:26.992Z,15.75
2022-08-28T05:28:56.674Z,12.53
2022-08-28T05:31:24.154Z,13.90
2022-08-28T05:33:51.891Z,14.95
2022-08-28T05:36:22.094Z,12.52
2022-08-28T05:38:50.690Z,17.67
2022-08-28T05:43:49.265Z,13.98
2022-08-28T05:46:17.409Z,14.82
2022-08-28T05:48:45.850Z,15.13
2022-08-28T05:51:18.373Z,12.82
2022-08-28T05:53:49.780Z,18.67
2022-08-28T05:56:22.968Z,12.48
2022-08-28T05:58:50.476Z,18.40
2022-08-28T06:01:29.415Z,13.43
2022-08-28T06:04:18.338Z,16.27
2022-08-28T06:06:46.190Z,14.02
2022-08-28T06:09:19.772Z,18.42
2022-08-28T06:11:47.464Z,15.10
2022-08-28T06:14:17.922Z,11.52
2022-08-28T06:16:49.694Z,13.82
2022-08-28T06:19:17.434Z,16.80
2022-08-28T06:21:44.404Z,16.15
2022-08-28T06:24:12.200Z,15.93
2022-08-28T06:26:40.202Z,19.83
2022-08-28T06:29:10.739Z,15.15
2022-08-28T06:31:38.047Z,17.37
2022-08-28T06:34:06.236Z,13.23
2022-08-28T06:36:35.283Z,13.62
2022-08-28T06:39:04.437Z,18.42
2022-08-28T06:41:32.881Z,12.90
2022-08-28T06:44:00.240Z,17.75
2022-08-28T06:46:30.363Z,18.00
2022-08-28T06:48:57.454Z,16.25
2022-08-28T06:51:25.068Z,11.55
2022-08-28T06:53:51.931Z,14.38
2022-08-28T06:56:26.139Z,19.25
2022-08-28T06:58:56.800Z,14.85
2022-08-28T07:01:24.527Z,11.07
2022-08-28T07:03:54.131Z,16.70
2022-08-28T07:06:22.793Z,21.05
2022-08-28T07:08:51.072Z,17.20
2022-08-28T07:11:28.898Z,20.98
2022-08-28T07:13:57.186Z,12.82
2022-08-28T07:16:27.004Z,14.18
2022-08-28T07:18:54.118Z,19.02
2022-08-28T07:21:21.564Z,16.37
2022-08-28T07:23:48.761Z,20.58
2022-08-28T07:26:20.168Z,16.98
2022-08-28T07:28:47.332Z,19.83
2022-08-28T07:31:17.618Z,18.00
2022-08-28T07:33:45.172Z,14.25
2022-08-28T07:36:29.764Z,16.58
2022-08-28T07:38:59.286Z,17.98
2022-08-28T07:41:28.678Z,27.60
2022-08-28T07:44:14.906Z,22.45
2022-08-28T07:46:42.307Z,14.98
2022-08-28T07:49:09.824Z,14.57
2022-08-28T07:51:37.023Z,16.20
2022-08-28T07:54:05.102Z,15.73
2022-08-28T07:56:32.426Z,15.93
2022-08-28T07:59:01.191Z,22.70
2022-08-28T08:01:30.726Z,18.45
2022-08-28T08:04:01.769Z,15.20
2022-08-28T08:06:34.482Z,17.52
2022-08-28T08:09:03.223Z,13.48
2022-08-28T08:11:32.639Z,18.42
2022-08-28T08:14:05.391Z,15.02
2022-08-28T08:16:35.949Z,17.83
2022-08-28T08:19:04.046Z,18.12
2022-08-28T08:21:32.095Z,17.95
2022-08-28T08:23:59.484Z,15.70
2022-08-28T08:26:28.290Z,13.57
2022-08-28T08:28:56.584Z,18.23
2022-08-28T08:31:26.780Z,16.67
2022-08-28T08:33:57.413Z,19.40
2022-08-28T08:36:26.489Z,16.90
2022-08-28T08:38:59.797Z,17.12
2022-08-28T08:41:33.382Z,14.40
2022-08-28T08:44:15.156Z,15.75
2022-08-28T08:47:00.684Z,16.30
2022-08-28T08:49:32.699Z,16.75
2022-08-28T08:52:06.748Z,19.23
2022-08-28T08:54:33.600Z,18.70
2022-08-28T08:57:02.476Z,17.30
2022-08-28T08:59:32.625Z,16.40
2022-08-28T09:02:07.062Z,16.95
2022-08-28T09:04:56.477Z,15.27
2022-08-28T09:07:37.890Z,15.68
2022-08-28T09:10:08.145Z,16.83
2022-08-28T09:12:50.234Z,15.43
2022-08-28T09:15:31.921Z,17.30
2022-08-28T09:18:13.957Z,15.73
2022-08-28T09:20:42.192Z,14.38
2022-08-28T09:23:13.155Z,16.80
2022-08-28T09:26:02.355Z,13.80
2022-08-28T09:28:32.107Z,14.05
2022-08-28T09:31:07.674Z,13.15
2022-08-28T09:33:47.172Z,12.05
2022-08-28T09:36:35.866Z,13.38
2022-08-28T09:39:13.819Z,13.32
2022-08-28T09:42:07.308Z,10.95
2022-08-28T09:44:46.079Z,9.82
2022-08-28T09:47:56.247Z,14.38
2022-08-28T09:50:38.737Z,10.95
2022-08-28T09:53:11.677Z,9.07
2022-08-28T09:55:50.242Z,9.90
2022-08-28T09:58:19.533Z,7.70
2022-08-28T10:00:57.030Z,12.85
2022-08-28T10:03:54.486Z,12.63
2022-08-28T10:06:26.721Z,13.52
2022-08-28T10:09:04.679Z,13.98
2022-08-28T10:11:44.392Z,11.50
2022-08-28T10:14:14.462Z,15.55
2022-08-28T10:16:58.185Z,10.18
2022-08-28T10:19:28.158Z,9.95
2022-08-28T10:22:25.374Z,9.75
2022-08-28T10:25:19.360Z,9.05
2022-08-28T10:28:02.065Z,12.23
2022-08-28T10:30:33.772Z,15.05
2022-08-28T10:33:30.171Z,10.70
2022-08-28T10:36:32.923Z,13.80
2022-08-28T10:39:17.328Z,13.55
2022-08-28T10:41:56.694Z,15.82
2022-08-28T10:44:35.398Z,13.05
2022-08-28T10:47:05.517Z,13.85
2022-08-28T10:49:39.914Z,13.65
2022-08-28T10:52:19.016Z,12.98
2022-08-28T10:54:54.811Z,10.95
2022-08-28T10:57:49.440Z,12.32
2022-08-28T11:00:20.154Z,14.85
2022-08-28T11:02:55.008Z,10.23
2022-08-28T11:05:24.055Z,11.02
2022-08-28T11:07:59.395Z,10.30
2022-08-28T11:10:36.873Z,11.00
2022-08-28T11:13:06.306Z,11.45
2022-08-28T11:15:37.067Z,11.32
2022-08-28T11:18:16.714Z,12.90
2022-08-28T11:20:57.376Z,14.90
2022-08-28T11:23:33.583Z,15.13
2022-08-28T11:26:07.911Z,11.90
2022-08-28T11:28:35.071Z,12.00
2022-08-28T11:31:04.649Z,9.77
2022-08-28T11:33:52.546Z,10.75
2022-08-28T11:36:22.754Z,11.77
2022-08-28T11:38:52.148Z,15.57
2022-08-28T11:41:23.049Z,12.40
2022-08-28T11:44:09.004Z,10.87
2022-08-28T11:46:40.060Z,14.18
2022-08-28T11:49:29.154Z,11.85
2022-08-28T11:52:23.512Z,13.48
2022-08-28T11:55:24.778Z,13.45
2022-08-28T11:58:25.014Z,13.73
2022-08-28T12:01:05.231Z,18.25
2022-08-28T12:04:08.092Z,20.37
2022-08-28T12:06:50.306Z,15.20
2022-08-28T12:09:26.504Z,20.73
2022-08-28T12:11:59.791Z,20.83
2022-08-28T12:14:27.205Z,20.35
2022-08-28T12:17:01.245Z,24.15
2022-08-28T12:19:49.950Z,22.35
2022-08-28T12:22:26.853Z,21.77
2022-08-28T12:25:01.113Z,25.35
2022-08-28T12:27:28.808Z,25.17
2022-08-28T12:29:58.979Z,24.45
2022-08-28T12:32:34.569Z,24.92
2022-08-28T12:35:02.180Z,26.37
2022-08-28T12:37:51.626Z,25.55
2022-08-28T12:42:59.269Z,21.77
2022-08-28T12:45:34.195Z,26.45
2022-08-28T12:48:04.710Z,29.65
2022-08-28T12:50:39.801Z,32.40
2022-08-28T12:53:12.954Z,30.88
2022-08-28T12:55:40.447Z,30.33
2022-08-28T12:58:27.974Z,28.85
2022-08-28T13:00:58.874Z,30.55
2022-08-28T13:03:25.989Z,31.83
2022-08-28T13:06:05.455Z,34.08
2022-08-28T13:08:35.236Z,39.90
2022-08-28T13:11:02.048Z,35.95
2022-08-28T13:13:47.048Z,39.65
2022-08-28T13:16:38.755Z,45.78
2022-08-28T13:19:05.509Z,41.00
2022-08-28T13:21:36.126Z,42.45
2022-08-28T13:24:24.236Z,43.87
2022-08-28T13:27:05.239Z,59.53
2022-08-28T13:29:32.816Z,59.40
2022-08-28T13:32:09.475Z,55.53
2022-08-28T13:34:39.066Z,52.30
2022-08-28T13:37:54.331Z,55.80
2022-08-28T13:40:55.912Z,61.17
2022-08-28T13:43:12.323Z,68.12
2022-08-28T13:45:44.096Z,81.57
2022-08-28T13:48:14.002Z,76.57
2022-08-28T13:50:45.669Z,79.28
2022-08-28T13:53:15.899Z,90.45
2022-08-28T13:55:42.868Z,88.55
2022-08-28T13:58:09.602Z,85.43
2022-08-28T14:00:41.439Z,86.72
2022-08-28T14:03:27.261Z,81.30
2022-08-28T14:05:54.502Z,79.43
2022-08-28T14:08:22.306Z,85.38
2022-08-28T14:10:49.151Z,85.78
2022-08-28T14:13:16.097Z,82.95
2022-08-28T14:15:43.101Z,90.07
2022-08-28T14:18:09.762Z,85.47
2022-08-28T14:20:38.211Z,87.15
2022-08-28T14:23:05.334Z,86.80
2022-08-28T14:25:37.030Z,89.68
2022-08-28T14:28:06.090Z,89.97
2022-08-28T14:30:32.810Z,95.53
2022-08-28T14:32:59.484Z,86.40
2022-08-28T14:35:26.706Z,82.90
2022-08-28T14:37:53.456Z,82.05
2022-08-28T14:40:20.271Z,88.50
2022-08-28T14:42:47.579Z,84.37
2022-08-28T14:45:14.299Z,86.25
2022-08-28T14:47:41.379Z,81.15
2022-08-28T14:50:08.778Z,89.53
2022-08-28T14:52:35.682Z,83.30
2022-08-28T14:55:02.437Z,87.72
2022-08-28T14:57:29.523Z,89.32
2022-08-28T14:59:56.319Z,77.28
2022-08-28T15:02:23.395Z,80.75
2022-08-28T15:04:50.406Z,88.28
2022-08-28T15:07:17.182Z,79.80
2022-08-28T15:09:43.896Z,82.05
2022-08-28T15:12:11.432Z,73.78
2022-08-28T15:14:38.261Z,81.30
2022-08-28T15:17:05.404Z,82.68
2022-08-28T15:19:32.452Z,84.65
2022-08-28T15:21:59.556Z,86.40
2022-08-28T15:24:30.935Z,89.62
2022-08-28T15:26:59.740Z,93.53
2022-08-28T15:29:29.956Z,105.45
2022-08-28T15:31:57.334Z,89.97
2022-08-28T15:34:26.510Z,88.43
2022-08-28T15:36:55.204Z,82.82
2022-08-28T15:39:46.595Z,78.20
2022-08-28T15:42:14.795Z,82.33
2022-08-28T15:44:42.369Z,74.95
2022-08-28T15:47:09.160Z,63.42
2022-08-28T15:49:46.604Z,65.70
2022-08-28T15:52:18.537Z,63.37
2022-08-28T15:54:45.679Z,54.78
2022-08-28T15:57:12.386Z,58.03
2022-08-28T15:59:48.698Z,43.90
2022-08-28T16:02:23.415Z,42.95
2022-08-28T16:04:51.840Z,41.00
2022-08-28T16:07:21.079Z,34.47
2022-08-28T16:09:47.972Z,33.00
2022-08-28T16:12:15.273Z,30.62
2022-08-28T16:14:42.156Z,26.58
2022-08-28T16:17:10.747Z,24.52
2022-08-28T16:19:39.941Z,20.40
2022-08-28T16:22:07.509Z,19.00
2022-08-28T16:24:34.552Z,19.35
2022-08-28T16:27:01.598Z,15.35
2022-08-28T16:29:28.588Z,14.52
2022-08-28T16:31:56.638Z,13.20
2022-08-28T16:34:27.055Z,12.18
2022-08-28T16:36:56.130Z,12.35
2022-08-28T16:39:23.222Z,12.57
2022-08-28T16:41:50.312Z,12.75
2022-08-28T16:44:21.528Z,14.98
2022-08-28T16:49:15.270Z,13.88
2022-08-28T16:51:41.996Z,12.00
2022-08-28T16:54:09.154Z,14.05
2022-08-28T16:56:35.912Z,11.12
2022-08-28T16:59:03.010Z,10.85
2022-08-28T17:01:37.842Z,9.55
2022-08-28T17:04:07.749Z,10.98
2022-08-28T17:06:34.925Z,6.82
2022-08-28T17:09:01.950Z,7.43
2022-08-28T17:11:29.016Z,6.75
2022-08-28T17:13:55.819Z,7.30
2022-08-28T17:16:24.427Z,8.50
2022-08-28T17:18:52.956Z,9.90
2022-08-28T17:21:40.137Z,25.52
2022-08-28T17:24:09.382Z,13.00
2022-08-28T17:26:36.111Z,8.30
2022-08-28T17:29:03.347Z,7.28
2022-08-28T17:31:30.623Z,7.30
2022-08-28T17:33:57.345Z,7.85
2022-08-28T17:36:33.471Z,8.02
2022-08-28T17:39:03.689Z,9.20
2022-08-28T17:41:30.492Z,10.82
2022-08-28T17:43:57.378Z,7.50
2022-08-28T17:46:25.782Z,7.57
2022-08-28T17:48:55.883Z,9.63
2022-08-28T17:51:42.802Z,10.30
2022-08-28T17:54:16.827Z,9.07
2022-08-28T17:56:44.958Z,9.23
2022-08-28T17:59:12.556Z,9.65
2022-08-28T18:01:41.735Z,9.50
2022-08-28T18:04:09.241Z,9.20
2022-08-28T18:06:36.878Z,9.98
2022-08-28T18:09:04.584Z,9.63
2022-08-28T18:11:31.610Z,12.05
2022-08-28T18:13:59.784Z,9.00
2022-08-28T18:16:31.082Z,8.13
2022-08-28T18:19:04.045Z,11.43
2022-08-28T18:21:31.145Z,8.00
2022-08-28T18:23:58.275Z,8.13
2022-08-28T18:26:25.091Z,7.50
2022-08-28T18:28:52.281Z,10.65
2022-08-28T18:31:20.283Z,8.20
2022-08-28T18:33:47.210Z,6.80
2022-08-28T18:36:15.059Z,8.20
2022-08-28T18:38:43.712Z,8.73
2022-08-28T18:41:12.092Z,9.77
2022-08-28T18:43:39.654Z,11.10
2022-08-28T18:46:08.906Z,12.95
2022-08-28T18:48:36.801Z,10.80
2022-08-28T18:51:06.590Z,9.80
2022-08-28T18:53:34.056Z,9.73
2022-08-28T18:56:01.814Z,11.10
2022-08-28T18:58:30.639Z,10.85
2022-08-28T19:00:57.593Z,9.70
2022-08-28T19:03:24.394Z,9.45
2022-08-28T19:05:51.905Z,8.68
2022-08-28T19:08:19.189Z,11.48
2022-08-28T19:10:46.637Z,8.63
2022-08-28T19:13:13.342Z,8.50
2022-08-28T19:15:40.947Z,9.95
2022-08-28T19:18:07.893Z,10.32
2022-08-28T19:20:34.885Z,9.18
2022-08-28T19:23:01.993Z,10.15
2022-08-28T19:25:30.680Z,8.13
2022-08-28T19:28:04.178Z,10.75
2022-08-28T19:30:33.390Z,12.68
2022-08-28T19:33:02.418Z,11.27
2022-08-28T19:35:29.331Z,8.88
2022-08-28T19:37:56.369Z,10.43
2022-08-28T19:40:23.384Z,9.18
2022-08-28T19:42:50.378Z,9.02
2022-08-28T19:45:18.463Z,10.00
2022-08-28T19:47:46.853Z,12.02
2022-08-28T19:50:15.233Z,13.70
2022-08-28T19:52:43.445Z,11.52
2022-08-28T19:55:17.659Z,11.63
2022-08-28T19:57:46.838Z,12.80
2022-08-28T20:00:17.653Z,9.02
2022-08-28T20:02:45.676Z,11.85
2022-08-28T20:05:12.714Z,11.50
2022-08-28T20:07:39.799Z,9.30
2022-08-28T20:10:07.457Z,7.07
2022-08-28T20:12:34.701Z,8.48
2022-08-28T20:15:03.758Z,8.30
2022-08-28T20:17:30.886Z,10.05
2022-08-28T20:20:02.309Z,9.65
2022-08-28T20:22:31.842Z,8.15
2022-08-28T20:24:59.693Z,8.20
2022-08-28T20:27:26.759Z,11.82
2022-08-28T20:29:53.577Z,9.32
2022-08-28T20:32:20.687Z,8.70
2022-08-28T20:34:47.370Z,11.73
2022-08-28T20:37:14.152Z,8.45
2022-08-28T20:39:41.745Z,11.57
2022-08-28T20:42:09.428Z,8.52
2022-08-28T20:44:36.098Z,9.02
2022-08-28T20:47:03.766Z,8.07
2022-08-28T20:49:30.451Z,10.18
2022-08-28T20:51:57.520Z,11.68
2022-08-28T20:54:33.817Z,8.32
2022-08-28T20:57:03.592Z,11.95
2022-08-28T20:59:39.192Z,8.30
2022-08-28T21:02:22.211Z,8.13
2022-08-28T21:04:50.472Z,8.43
2022-08-28T21:07:19.335Z,8.23
2022-08-28T21:10:05.029Z,9.20
2022-08-28T21:12:35.476Z,7.45
2022-08-28T21:15:02.398Z,8.13
2022-08-28T21:17:30.781Z,8.68
2022-08-28T21:20:06.156Z,8.77
2022-08-28T21:22:35.303Z,8.32
2022-08-28T21:25:05.670Z,11.70
2022-08-28T21:27:32.736Z,8.65
2022-08-28T21:30:00.835Z,13.45
2022-08-28T21:32:29.793Z,8.25
2022-08-28T21:34:57.014Z,13.10
2022-08-28T21:37:23.962Z,10.93
2022-08-28T21:39:52.323Z,10.23
2022-08-28T21:42:20.767Z,12.37
2022-08-28T21:44:51.847Z,11.20
2022-08-28T21:47:23.869Z,11.10
2022-08-28T21:49:52.272Z,12.60
2022-08-28T21:52:21.022Z,9.48
2022-08-28T21:54:48.480Z,9.95
2022-08-28T21:57:16.585Z,14.82
2022-08-28T21:59:43.689Z,10.35
2022-08-28T22:02:10.465Z,8.52
2022-08-28T22:04:37.782Z,10.82
2022-08-28T22:07:04.750Z,9.13
2022-08-28T22:09:31.466Z,9.85
2022-08-28T22:11:58.478Z,10.18
2022-08-28T22:14:25.315Z,9.10
2022-08-28T22:16:52.301Z,13.38
2022-08-28T22:19:19.700Z,11.85
2022-08-28T22:22:04.937Z,14.15
2022-08-28T22:24:32.006Z,13.45
2022-08-28T22:26:58.721Z,15.85
2022-08-28T22:29:26.057Z,11.88
2022-08-28T22:31:53.133Z,13.65
2022-08-28T22:34:20.087Z,11.30
2022-08-28T22:36:47.053Z,14.85
2022-08-28T22:39:14.207Z,10.75
2022-08-28T22:41:42.052Z,12.25
2022-08-28T22:44:09.309Z,12.07
2022-08-28T22:46:36.283Z,12.55
2022-08-28T22:49:03.529Z,11.38
2022-08-28T22:51:32.713Z,9.98
2022-08-28T22:53:59.704Z,12.20
2022-08-28T22:56:26.442Z,11.10
2022-08-28T22:58:53.177Z,9.35
2022-08-28T23:01:24.434Z,9.48
2022-08-28T23:03:51.342Z,10.57
2022-08-28T23:06:18.321Z,8.82
2022-08-28T23:08:45.222Z,14.45
2022-08-28T23:11:11.921Z,10.43
2022-08-28T23:13:38.946Z,19.65
2022-08-28T23:16:07.024Z,15.52
2022-08-28T23:18:51.954Z,11.90
2022-08-28T23:21:26.356Z,10.68
2022-08-28T23:23:54.988Z,11.77
2022-08-28T23:26:23.329Z,12.80
2022-08-28T23:28:50.218Z,9.55
2022-08-28T23:31:16.874Z,12.75
2022-08-28T23:33:43.845Z,10.95
2022-08-28T23:36:10.973Z,12.80
2022-08-28T23:38:40.780Z,9.77
2022-08-28T23:41:11.396Z,14.40
2022-08-28T23:43:38.381Z,11.25
2022-08-28T23:46:06.419Z,15.38
2022-08-28T23:48:35.318Z,13.70
2022-08-28T23:51:02.532Z,9.45
2022-08-28T23:53:29.433Z,12.07
2022-08-28T23:55:59.540Z,12.27
2022-08-28T23:58:31.962Z,11.00
